Time;durP1;ratioP1;P1;durP2;ratioP2;P2;SDS_P1;SDS_P2;PMS_P1;PMS_P2;Temp;Humidity;BMP_temperature;BMP_pressure;BME280_temperature;BME280_humidity;BME280_pressure;Samples;Min_cycle;Max_cycle;Signal;HPM_P1;HPM_P2
2023/10/13 00:02:02;;;;;;;;;;;;;;;16.65;100.00;101153.06;4899937;29;20286;-92
2023/10/13 00:04:28;;;;;;;;;;;;;;;16.64;100.00;101146.03;4899958;29;19915;-91
2023/10/13 00:06:57;;;;;;;;;;;;;;;16.63;100.00;101154.81;4899881;29;20002;-91
2023/10/13 00:09:25;;;;;;;;;;;;;;;16.63;100.00;101145.16;4917855;29;19915;-92
2023/10/13 00:11:56;;;;;;;;;;;;;;;16.63;100.00;101139.03;4900697;29;20441;-92
2023/10/13 00:14:21;;;;;;;;;;;;;;;16.62;100.00;101129.38;4900007;29;19916;-92
2023/10/13 00:17:02;;;;;;;;;;;;;;;16.63;100.00;101131.16;4900052;29;20338;-91
2023/10/13 00:19:28;;;;;;;;;;;;;;;16.63;100.00;101131.16;4899767;29;19915;-92
2023/10/13 00:21:56;;;;;;;;;;;;;;;16.63;100.00;101125.88;4899659;29;19956;-92
2023/10/13 00:24:23;;;;;;;;;;;;;;;16.62;100.00;101121.50;4884766;29;19916;-92
2023/10/13 00:26:48;;;;;;;;;;;;;;;16.59;100.00;101124.97;4906736;29;19915;-92
2023/10/13 00:29:17;;;;;;;;;;;;;;;16.59;100.00;101121.47;4899970;29;20452;-91
2023/10/13 00:31:42;;;;;;;;;;;;;;;16.59;100.00;101124.13;4900754;29;19969;-92
2023/10/13 00:34:32;;;;;;;;;;;;;;;16.56;100.00;101114.47;4917956;29;19959;-92
2023/10/13 00:37:19;;;;;;;;;;;;;;;16.56;100.00;101106.56;4899854;29;20419;-92
2023/10/13 00:39:45;;;;;;;;;;;;;;;16.55;100.00;101106.56;4874422;29;19915;-91
2023/10/13 00:42:18;;;;;;;;;;;;;;;16.53;100.00;101109.19;4916995;29;19915;-92
2023/10/13 00:44:49;;;;;;;;;;;;;;;16.51;100.00;101106.56;4916680;29;20158;-92
2023/10/13 00:50:01;;;;;;;;;;;;;;;16.51;100.00;101103.03;4916531;29;19967;-92
2023/10/13 00:52:29;;;;;;;;;;;;;;;16.49;100.00;101097.75;4899459;29;19907;-92
2023/10/13 00:54:55;;;;;;;;;;;;;;;16.49;100.00;101099.53;4899371;29;20394;-91
2023/10/13 00:57:26;;;;;;;;;;;;;;;16.48;100.00;101098.66;4899508;29;20014;-92
2023/10/13 00:59:57;;;;;;;;;;;;;;;16.48;100.00;101096.03;4916520;29;19921;-91
2023/10/13 01:05:00;;;;;;;;;;;;;;;16.47;100.00;101085.50;4916663;29;19922;-91
2023/10/13 01:07:25;;;;;;;;;;;;;;;16.47;100.00;101082.88;4898711;29;19923;-90
2023/10/13 01:09:51;;;;;;;;;;;;;;;16.47;100.00;101080.25;4898780;29;19915;-91
2023/10/13 01:12:16;;;;;;;;;;;;;;;16.47;100.00;101078.47;4916249;29;20404;-92
2023/10/13 01:14:41;;;;;;;;;;;;;;;16.45;100.00;101076.72;4898836;29;19930;-91
2023/10/13 01:17:06;;;;;;;;;;;;;;;16.44;100.00;101073.22;4915989;29;19959;-90
2023/10/13 01:19:38;;;;;;;;;;;;;;;16.43;100.00;101071.44;4916074;29;20439;-90
2023/10/13 01:22:06;;;;;;;;;;;;;;;16.43;100.00;101062.69;4915708;29;19923;-91
2023/10/13 01:24:34;;;;;;;;;;;;;;;16.42;100.00;101058.28;4898682;29;20393;-91
2023/10/13 01:27:07;;;;;;;;;;;;;;;16.41;100.00;101051.28;4915559;29;19907;-90
2023/10/13 01:29:32;;;;;;;;;;;;;;;16.39;100.00;101046.00;4898638;29;19915;-91
2023/10/13 01:31:58;;;;;;;;;;;;;;;16.39;100.00;101050.41;4899053;29;19922;-90
2023/10/13 01:34:23;;;;;;;;;;;;;;;16.38;100.00;101041.66;4898906;29;19915;-91
2023/10/13 01:36:50;;;;;;;;;;;;;;;16.37;100.00;101039.00;4897785;29;19923;-91
2023/10/13 01:39:16;;;;;;;;;;;;;;;16.37;100.00;101033.75;4889780;29;19915;-91
2023/10/13 01:41:42;;;;;;;;;;;;;;;16.36;100.00;101032.84;4915268;29;19915;-91
2023/10/13 01:44:11;;;;;;;;;;;;;;;16.36;100.00;101026.72;4915001;29;19919;-91
2023/10/13 01:46:37;;;;;;;;;;;;;;;16.35;100.00;101023.19;4915326;29;19926;-90
2023/10/13 01:49:02;;;;;;;;;;;;;;;16.34;100.00;101014.44;4915049;29;19970;-90
2023/10/13 01:51:28;;;;;;;;;;;;;;;16.33;100.00;101015.31;4914981;29;19998;-90
2023/10/13 01:53:56;;;;;;;;;;;;;;;16.32;100.00;101008.31;4914909;29;19925;-91
2023/10/13 01:56:23;;;;;;;;;;;;;;;16.34;100.00;101000.44;4898140;29;20122;-90
2023/10/13 01:58:48;;;;;;;;;;;;;;;16.33;100.00;101003.94;4915241;29;19927;-90
2023/10/13 02:01:13;;;;;;;;;;;;;;;16.32;100.00;100997.78;4915186;29;19942;-90
2023/10/13 02:03:46;;;;;;;;;;;;;;;16.33;100.00;100990.78;4897687;29;20014;-90
2023/10/13 02:06:16;;;;;;;;;;;;;;;16.32;100.00;100989.00;4897578;29;19999;-90
2023/10/13 02:08:43;;;;;;;;;;;;;;;16.32;100.00;100979.41;4897585;29;19919;-90
2023/10/13 02:11:09;;;;;;;;;;;;;;;16.30;100.00;100978.50;4897918;29;20313;-90
2023/10/13 02:13:41;;;;;;;;;;;;;;;16.31;100.00;100987.28;4897469;29;20378;-90
2023/10/13 02:16:07;;;;;;;;;;;;;;;16.31;100.00;100984.66;4914744;29;20033;-90
2023/10/13 02:18:41;;;;;;;;;;;;;;;16.30;100.00;100972.38;4914532;29;19993;-90
2023/10/13 02:21:12;;;;;;;;;;;;;;;16.29;100.00;100976.75;4897222;29;19931;-90
2023/10/13 02:24:29;;;;;;;;;;;;;;;16.32;100.00;100978.50;4914421;29;20006;-90
2023/10/13 02:26:32;;;;;;;;;;;;;;;16.32;100.00;100982.03;4903726;29;20014;-89
2023/10/13 02:29:07;;;;;;;;;;;;;;;16.33;100.00;100980.25;4897335;29;19923;-89
2023/10/13 02:31:34;;;;;;;;;;;;;;;16.33;100.00;100975.00;4914212;29;20347;-89
2023/10/13 02:34:00;;;;;;;;;;;;;;;16.35;100.00;100962.72;4914411;29;19966;-89
2023/10/13 02:36:36;;;;;;;;;;;;;;;16.37;100.00;100960.13;4896553;29;20364;-89
2023/10/13 02:39:07;;;;;;;;;;;;;;;16.37;100.00;100955.72;4886603;29;19915;-89
2023/10/13 02:41:32;;;;;;;;;;;;;;;16.39;100.00;100953.09;4897292;29;20271;-88
2023/10/13 02:43:57;;;;;;;;;;;;;;;16.40;100.00;100946.97;4897004;29;20381;-88
2023/10/13 02:46:23;;;;;;;;;;;;;;;16.41;100.00;100935.56;4913898;29;20061;-88
2023/10/13 02:48:53;;;;;;;;;;;;;;;16.40;100.00;100924.16;4913762;29;20260;-88
2023/10/13 02:51:18;;;;;;;;;;;;;;;16.40;100.00;100918.03;4897005;29;20028;-89
2023/10/13 02:53:49;;;;;;;;;;;;;;;16.40;100.00;100911.03;4914055;29;20366;-88
2023/10/13 02:56:20;;;;;;;;;;;;;;;16.40;100.00;100907.53;4896803;29;20389;-88
2023/10/13 02:58:53;;;;;;;;;;;;;;;16.40;100.00;100912.78;4914347;29;19919;-88
2023/10/13 03:01:18;;;;;;;;;;;;;;;16.40;100.00;100897.88;4913549;29;20006;-88
2023/10/13 03:03:58;;;;;;;;;;;;;;;16.41;100.00;100898.72;4914193;29;20395;-88
2023/10/13 03:06:31;;;;;;;;;;;;;;;16.42;100.00;100896.09;4913779;29;20002;-88
2023/10/13 03:08:57;;;;;;;;;;;;;;;16.43;100.00;100886.47;4913941;29;19923;-88
2023/10/13 03:11:24;;;;;;;;;;;;;;;16.44;100.00;100868.06;4913675;29;20277;-88
2023/10/13 03:13:51;;;;;;;;;;;;;;;16.46;100.00;100870.69;4913936;29;20366;-88
2023/10/13 03:16:17;;;;;;;;;;;;;;;16.46;100.00;100870.69;4914023;29;20014;-89
2023/10/13 03:18:53;;;;;;;;;;;;;;;16.46;100.00;100868.06;4913747;29;20005;-88
2023/10/13 03:21:29;;;;;;;;;;;;;;;16.47;100.00;100856.69;4913616;29;19958;-88
2023/10/13 03:24:04;;;;;;;;;;;;;;;16.49;100.00;100847.03;4913918;29;19921;-88
2023/10/13 03:26:29;;;;;;;;;;;;;;;16.49;100.00;100845.25;4896677;29;19916;-88
2023/10/13 03:28:56;;;;;;;;;;;;;;;16.49;100.00;100840.00;4896905;29;19919;-88
2023/10/13 03:31:27;;;;;;;;;;;;;;;16.50;100.00;100836.50;4896654;29;19915;-88
2023/10/13 03:33:59;;;;;;;;;;;;;;;16.51;100.00;100833.00;4914241;29;20095;-88
2023/10/13 03:39:10;;;;;;;;;;;;;;;16.52;100.00;100815.44;4907786;29;20018;-87
2023/10/13 03:41:38;;;;;;;;;;;;;;;16.54;100.00;100820.69;4913734;29;19921;-88
2023/10/13 03:44:17;;;;;;;;;;;;;;;16.56;100.00;100813.72;4913827;29;19967;-87
2023/10/13 03:46:42;;;;;;;;;;;;;;;16.56;100.00;100808.44;4913903;29;19986;-87
2023/10/13 03:49:12;;;;;;;;;;;;;;;16.58;100.00;100806.66;4913238;29;20334;-87
2023/10/13 03:51:38;;;;;;;;;;;;;;;16.55;100.00;100793.53;4913490;29;20346;-87
2023/10/13 03:54:07;;;;;;;;;;;;;;;16.57;100.00;100794.38;4896532;29;19915;-87
2023/10/13 03:56:38;;;;;;;;;;;;;;;16.60;100.00;100789.16;4896625;29;19915;-87
2023/10/13 03:59:06;;;;;;;;;;;;;;;16.61;100.00;100788.25;4896551;29;19919;-87
2023/10/13 04:01:32;;;;;;;;;;;;;;;16.64;100.00;100783.88;4898935;29;20005;-87
2023/10/13 04:04:03;;;;;;;;;;;;;;;16.65;100.00;100787.38;4900163;29;20494;-88
2023/10/13 04:17:15;;;;;;;;;;;;;;;16.75;100.00;100752.25;4916830;29;19967;-88
2023/10/13 04:23:17;;;;;;;;;;;;;;;16.78;100.00;100748.75;4916690;29;19974;-87
2023/10/13 04:38:57;;;;;;;;;;;;;;;16.92;100.00;100749.59;4911012;29;19919;-88
2023/10/13 04:41:31;;;;;;;;;;;;;;;16.93;100.00;100748.72;4899632;29;19915;-88
2023/10/13 04:44:47;;;;;;;;;;;;;;;16.95;100.00;100744.31;4899527;29;19919;-88
2023/10/13 04:46:54;;;;;;;;;;;;;;;16.97;100.00;100736.41;4916379;29;20510;-88
2023/10/13 04:49:29;;;;;;;;;;;;;;;16.98;100.00;100744.28;4911482;29;19964;-87
2023/10/13 04:52:26;;;;;;;;;;;;;;;17.00;100.00;100744.28;4897300;29;19919;-88
2023/10/13 04:54:53;;;;;;;;;;;;;;;17.00;100.00;100728.50;4904659;29;20386;-87
2023/10/13 04:57:33;;;;;;;;;;;;;;;17.04;100.00;100746.91;4915965;29;20215;-88
2023/10/13 05:51:43;;;;;;;;;;;;;;;17.14;100.00;100634.53;4915568;29;19915;-88
2023/10/13 06:29:31;;;;;;;;;;;;;;;17.10;100.00;100624.03;4904269;29;19930;-88
2023/10/13 06:31:57;;;;;;;;;;;;;;;17.09;100.00;100625.81;4892339;29;20286;-88
2023/10/13 06:34:37;;;;;;;;;;;;;;;17.09;100.00;100620.53;4886573;29;20041;-88
2023/10/13 06:37:02;;;;;;;;;;;;;;;17.09;100.00;100619.63;4892445;29;20022;-88
2023/10/13 06:39:37;;;;;;;;;;;;;;;17.09;100.00;100604.75;4895525;29;19999;-88
2023/10/13 06:42:05;;;;;;;;;;;;;;;17.09;100.00;100604.75;4896955;29;19927;-88
2023/10/13 06:44:32;;;;;;;;;;;;;;;17.09;100.00;100602.09;4883421;29;20361;-88
2023/10/13 06:46:57;;;;;;;;;;;;;;;17.10;100.00;100595.94;4900010;29;19919;-88
2023/10/13 06:49:23;;;;;;;;;;;;;;;17.12;100.00;100590.66;4901196;29;19925;-89
2023/10/13 06:51:49;;;;;;;;;;;;;;;17.12;100.00;100594.19;4884299;29;20014;-88
2023/10/13 06:54:20;;;;;;;;;;;;;;;17.13;100.00;100595.03;4904095;29;20397;-88
2023/10/13 06:56:46;;;;;;;;;;;;;;;17.12;100.00;100591.53;4875403;29;19927;-88
2023/10/13 06:59:14;;;;;;;;;;;;;;;17.15;100.00;100588.88;4890513;29;19916;-89
2023/10/13 07:01:40;;;;;;;;;;;;;;;17.16;100.00;100587.13;4893359;29;19915;-88
2023/10/13 07:04:12;;;;;;;;;;;;;;;17.17;100.00;100581.84;4896138;29;19919;-88
2023/10/13 07:06:42;;;;;;;;;;;;;;;17.19;100.00;100577.44;4898243;29;20018;-88
2023/10/13 07:09:15;;;;;;;;;;;;;;;17.20;100.00;100573.91;4898062;29;20396;-88
2023/10/13 07:11:42;;;;;;;;;;;;;;;17.22;100.00;100568.66;4887866;29;20499;-89
2023/10/13 07:14:11;;;;;;;;;;;;;;;17.23;100.00;100566.88;4881662;29;20398;-88
2023/10/13 07:16:46;;;;;;;;;;;;;;;17.25;100.00;100562.47;4908306;29;19915;-88
2023/10/13 07:19:11;;;;;;;;;;;;;;;17.25;100.00;100551.94;4912438;29;19922;-88
2023/10/13 07:21:45;;;;;;;;;;;;;;;17.27;100.00;100544.91;4895068;29;20009;-88
2023/10/13 07:24:11;;;;;;;;;;;;;;;17.29;100.00;100543.13;4912374;29;19923;-88
2023/10/13 07:26:42;;;;;;;;;;;;;;;17.31;100.00;100544.00;4894818;29;20331;-88
2023/10/13 07:29:08;;;;;;;;;;;;;;;17.33;100.00;100544.84;4888273;29;20392;-88
2023/10/13 07:31:33;;;;;;;;;;;;;;;17.34;100.00;100530.81;4899769;29;19916;-89
2023/10/13 07:34:12;;;;;;;;;;;;;;;17.38;100.00;100543.06;4914250;29;19955;-88
2023/10/13 07:36:43;;;;;;;;;;;;;;;17.43;100.00;100545.66;4907448;29;20093;-89
2023/10/13 07:39:21;;;;;;;;;;;;;;;17.46;100.00;100541.22;4917830;29;20437;-88
2023/10/13 07:42:03;;;;;;;;;;;;;;;17.51;100.00;100538.53;4900956;29;20010;-88
2023/10/13 07:44:31;;;;;;;;;;;;;;;17.54;100.00;100534.09;4917634;29;19963;-88
2023/10/13 07:47:00;;;;;;;;;;;;;;;17.61;100.00;100541.94;4917872;29;19966;-88
2023/10/13 07:49:32;;;;;;;;;;;;;;;17.66;100.00;100532.25;4900437;29;19920;-88
2023/10/13 07:54:50;;;;;;;;;;;;;;;17.73;100.00;100532.16;4887511;29;19915;-89
2023/10/13 07:57:17;;;;;;;;;;;;;;;17.76;100.00;100530.38;4917331;29;19915;-89
2023/10/13 07:59:51;;;;;;;;;;;;;;;17.80;100.00;100522.41;4900009;29;19927;-88
2023/10/13 08:02:48;;;;;;;;;;;;;;;17.84;100.00;100518.88;4916980;29;19970;-88
2023/10/13 08:05:04;;;;;;;;;;;;;;;17.87;100.00;100532.00;4917011;29;20409;-89
2023/10/13 08:07:31;;;;;;;;;;;;;;;17.88;100.00;100517.06;4917083;29;19930;-89
2023/10/13 08:09:59;;;;;;;;;;;;;;;17.92;100.00;100517.94;4917274;29;19986;-89
2023/10/13 08:12:24;;;;;;;;;;;;;;;17.92;100.00;100516.16;4917217;29;20012;-88
2023/10/13 08:14:59;;;;;;;;;;;;;;;17.92;100.00;100516.16;4900179;29;19919;-88
2023/10/13 08:17:31;;;;;;;;;;;;;;;18.00;100.00;100508.16;4917105;29;19922;-89
2023/10/13 08:19:56;;;;;;;;;;;;;;;18.02;100.00;100511.66;4917207;29;19919;-89
2023/10/13 08:27:34;;;;;;;;;;;;;;;18.21;100.00;100522.84;4916791;29;19907;-89
2023/10/13 08:33:04;;;;;;;;;;;;;;;18.31;100.00;100531.50;4899840;29;19921;-89
2023/10/13 08:35:35;;;;;;;;;;;;;;;18.36;100.00;100500.66;4898110;29;19922;-89
2023/10/13 08:38:04;;;;;;;;;;;;;;;18.53;100.00;100496.00;4916901;29;19923;-89
2023/10/13 08:43:13;;;;;;;;;;;;;;;18.51;100.00;100489.88;4917090;29;19942;-89
2023/10/13 08:53:28;;;;;;;;;;;;;;;18.67;100.00;100489.63;4916710;29;20030;-89
2023/10/13 08:56:07;;;;;;;;;;;;;;;18.68;100.00;100492.25;4916513;29;19912;-89
2023/10/13 08:59:22;;;;;;;;;;;;;;;18.67;100.00;100493.16;4916438;29;19958;-89
2023/10/13 09:10:11;;;;;;;;;;;;;;;18.85;100.00;100478.78;4908969;29;19942;-89
2023/10/13 09:12:35;;;;;;;;;;;;;;;18.86;100.00;100477.94;4898494;29;19957;-90
2023/10/13 09:15:06;;;;;;;;;;;;;;;18.85;100.00;100465.56;4899368;29;19915;-89
2023/10/13 09:20:23;;;;;;;;;;;;;;;18.88;100.00;100473.47;4916478;29;20033;-90
2023/10/13 09:25:33;;;;;;;;;;;;;;;18.90;100.00;100474.34;4916006;29;20289;-90
2023/10/13 09:28:00;;;;;;;;;;;;;;;18.92;100.00;100476.97;4898961;29;20006;-90
2023/10/13 09:30:28;;;;;;;;;;;;;;;18.97;100.00;100476.88;4915857;29;20064;-90
2023/10/13 09:33:04;;;;;;;;;;;;;;;18.96;100.00;100461.91;4915816;29;19915;-90
2023/10/13 09:35:33;;;;;;;;;;;;;;;19.00;100.00;100472.44;4889123;29;19922;-89
2023/10/13 09:37:59;;;;;;;;;;;;;;;19.03;100.00;100466.19;4888802;29;20341;-90
2023/10/13 09:40:34;;;;;;;;;;;;;;;19.03;100.00;100458.28;4901399;29;20010;-90
2023/10/13 09:43:06;;;;;;;;;;;;;;;19.07;100.00;100452.03;4915861;29;19915;-90
2023/10/13 09:48:34;;;;;;;;;;;;;;;19.16;100.00;100459.81;4835792;29;19973;-90
2023/10/13 09:51:04;;;;;;;;;;;;;;;19.20;100.00;100450.06;4883070;29;20032;-90
2023/10/13 09:53:30;;;;;;;;;;;;;;;19.21;100.00;100452.66;4900320;29;20014;-90
2023/10/13 09:56:00;;;;;;;;;;;;;;;19.23;100.00;100450.88;4888232;29;19975;-90
2023/10/13 09:58:36;;;;;;;;;;;;;;;19.25;100.00;100440.28;4897943;29;19915;-90
2023/10/13 10:01:09;;;;;;;;;;;;;;;19.30;100.00;100433.13;4885830;29;19919;-90
2023/10/13 10:04:07;;;;;;;;;;;;;;;19.37;100.00;100428.59;4898830;29;19915;-90
2023/10/13 10:06:39;;;;;;;;;;;;;;;19.45;100.00;100426.66;4890212;29;19922;-90
2023/10/13 10:09:14;;;;;;;;;;;;;;;19.55;100.00;100433.53;4911303;29;19919;-90
2023/10/13 10:12:00;;;;;;;;;;;;;;;19.57;100.00;100418.50;4904483;29;19970;-91
2023/10/13 10:14:41;;;;;;;;;;;;;;;19.60;100.00;100421.06;4887635;29;20409;-90
2023/10/13 10:17:07;;;;;;;;;;;;;;;19.61;100.00;100414.00;4892248;29;19923;-91
2023/10/13 10:19:35;;;;;;;;;;;;;;;19.65;100.00;100413.03;4870553;29;19977;-91
2023/10/13 10:22:22;;;;;;;;;;;;;;;19.65;100.00;100413.03;4869549;29;20021;-91
2023/10/13 10:25:03;;;;;;;;;;;;;;;19.65;100.00;100415.69;4882064;29;20390;-92
2023/10/13 10:27:31;;;;;;;;;;;;;;;19.67;99.60;100397.16;4897506;29;20006;-91
2023/10/13 10:29:57;;;;;;;;;;;;;;;19.68;100.00;100402.41;4873757;29;19946;-91
2023/10/13 10:32:36;;;;;;;;;;;;;;;19.68;99.89;100404.19;4884818;29;20357;-91
2023/10/13 10:35:07;;;;;;;;;;;;;;;19.70;96.87;100391.84;4865427;29;19920;-91
2023/10/13 10:37:34;;;;;;;;;;;;;;;19.72;97.75;100390.88;4867650;29;19916;-91
2023/10/13 10:40:05;;;;;;;;;;;;;;;19.78;99.54;100392.50;4893208;29;19930;-91
2023/10/13 10:42:31;;;;;;;;;;;;;;;19.78;99.06;100395.16;4897757;29;19915;-91
2023/10/13 10:44:58;;;;;;;;;;;;;;;19.79;95.45;100383.72;4897999;29;19919;-91
2023/10/13 10:47:36;;;;;;;;;;;;;;;19.86;96.52;100398.53;4897542;29;20381;-91
2023/10/13 10:50:08;;;;;;;;;;;;;;;19.92;96.28;100405.47;4915089;29;19958;-91
2023/10/13 10:52:37;;;;;;;;;;;;;;;19.94;96.03;100396.59;4898078;29;19946;-91
2023/10/13 10:55:06;;;;;;;;;;;;;;;19.96;95.86;100399.22;4897601;29;19971;-91
2023/10/13 10:57:37;;;;;;;;;;;;;;;19.93;96.34;100392.22;4914786;29;19954;-90
2023/10/13 11:00:11;;;;;;;;;;;;;;;19.92;95.82;100386.97;4902415;29;19923;-91
2023/10/13 11:02:39;;;;;;;;;;;;;;;20.01;94.96;100401.75;4894434;29;20504;-91
2023/10/13 11:05:06;;;;;;;;;;;;;;;20.02;95.65;100399.06;4893905;29;19915;-91
2023/10/13 11:07:34;;;;;;;;;;;;;;;20.12;94.37;100403.25;4897244;29;19923;-92
2023/10/13 11:10:17;;;;;;;;;;;;;;;20.08;94.92;100390.13;4914507;29;19919;-92
2023/10/13 11:12:53;;;;;;;;;;;;;;;20.18;93.88;100389.00;4904857;29;20374;-92
2023/10/13 11:15:33;;;;;;;;;;;;;;;20.19;94.65;100390.75;4897707;29;19958;-91
2023/10/13 11:17:58;;;;;;;;;;;;;;;20.20;92.78;100379.25;4914633;29;20057;-92
2023/10/13 11:20:33;;;;;;;;;;;;;;;20.24;92.19;100366.81;4897440;29;19949;-92
2023/10/13 11:22:59;;;;;;;;;;;;;;;20.27;91.56;100370.25;4897456;29;19919;-92
2023/10/13 11:25:34;;;;;;;;;;;;;;;20.30;92.96;100369.31;4897564;29;20346;-92
2023/10/13 11:28:09;;;;;;;;;;;;;;;20.36;92.13;100347.13;4908425;29;19923;-93
2023/10/13 11:33:07;;;;;;;;;;;;;;;20.37;91.60;100327.72;4909048;29;19923;-92
2023/10/13 11:38:26;;;;;;;;;;;;;;;20.51;91.99;100322.94;4914677;29;19975;-92
2023/10/13 11:49:08;;;;;;;;;;;;;;;20.76;88.86;100307.28;4914303;29;19920;-93
2023/10/13 11:51:33;;;;;;;;;;;;;;;20.75;87.40;100296.75;4897306;29;19915;-92
2023/10/13 11:53:59;;;;;;;;;;;;;;;20.82;88.94;100300.97;4914437;29;19915;-92
2023/10/13 11:56:24;;;;;;;;;;;;;;;20.84;87.21;100304.41;4897329;29;20002;-93
2023/10/13 11:59:01;;;;;;;;;;;;;;;20.87;87.71;100300.81;4914437;29;20381;-92
2023/10/13 12:04:32;;;;;;;;;;;;;;;20.88;87.61;100292.84;4903776;29;20587;-93
2023/10/13 12:07:16;;;;;;;;;;;;;;;20.97;87.23;100283.75;4895478;29;19922;-92
2023/10/13 12:12:33;;;;;;;;;;;;;;;21.00;85.49;100278.38;4913789;29;20001;-92
2023/10/13 12:15:09;;;;;;;;;;;;;;;21.10;86.56;100273.69;4872002;29;19927;-93
2023/10/13 12:17:44;;;;;;;;;;;;;;;21.21;85.07;100283.97;4893328;29;20005;-92
2023/10/13 12:20:32;;;;;;;;;;;;;;;21.26;86.12;100277.63;4871962;29;19916;-93
2023/10/13 12:23:09;;;;;;;;;;;;;;;21.36;85.97;100278.19;4871983;29;19924;-93
2023/10/13 12:25:54;;;;;;;;;;;;;;;21.41;85.16;100275.44;4877535;29;19920;-93
2023/10/13 12:28:41;;;;;;;;;;;;;;;;;;;;;
2023/10/13 12:31:12;;;;;;;;;;;;;;;21.51;83.39;100268.97;4892463;29;19916;-93
2023/10/13 12:33:40;;;;;;;;;;;;;;;21.60;83.31;100292.53;4891460;29;19916;-93
2023/10/13 12:48:55;;;;;;;;;;;;;;;21.67;82.13;100267.56;4895562;29;20574;-94
2023/10/13 12:50:12;;;;;;;;;;;;;;;21.75;80.36;100251.38;4909537;29;19967;-92
2023/10/13 12:53:00;;;;;;;;;;;;;;;21.67;80.16;100258.75;4899831;29;19930;-93
2023/10/13 12:55:38;;;;;;;;;;;;;;;21.75;79.89;100263.78;4910441;29;20169;-92
2023/10/13 12:58:15;;;;;;;;;;;;;;;21.68;80.61;100249.84;4900100;29;19922;-94
2023/10/13 13:00:49;;;;;;;;;;;;;;;21.66;80.02;100257.84;4916683;29;19975;-94
2023/10/13 13:03:20;;;;;;;;;;;;;;;21.68;78.69;100255.16;4899627;29;19919;-92
2023/10/13 13:06:00;;;;;;;;;;;;;;;;;;;;;
2023/10/13 13:08:35;;;;;;;;;;;;;;;21.79;78.10;100268.09;4916500;29;20309;-93
2023/10/13 13:11:01;;;;;;;;;;;;;;;22.00;74.61;100272.69;4899631;29;19930;-93
2023/10/13 13:13:55;;;;;;;;;;;;;;;21.93;76.43;100255.25;4899552;29;19915;-93
2023/10/13 13:16:45;;;;;;;;;;;;;;;;;;;;;
2023/10/13 13:19:40;;;;;;;;;;;;;;;;;;;;;
2023/10/13 13:25:26;;;;;;;;;;;;;;;22.00;74.64;100247.94;4903159;29;20030;-93
2023/10/13 13:27:57;;;;;;;;;;;;;;;21.97;74.13;100238.31;4893630;29;20048;-92
2023/10/13 13:33:23;;;;;;;;;;;;;;;22.06;72.77;100250.41;4850737;29;20415;-94
2023/10/13 13:36:01;;;;;;;;;;;;;;;22.02;72.00;100249.63;4844856;29;19920;-93
2023/10/13 13:39:00;;;;;;;;;;;;;;;21.93;75.55;100251.72;4838518;29;19920;-91
2023/10/13 13:47:40;;;;;;;;;;;;;;;21.94;72.12;100250.78;4854503;29;20350;-91
2023/10/13 13:56:38;;;;;;;;;;;;;;;21.76;74.27;100246.97;4850221;29;19925;-92
2023/10/13 14:02:30;;;;;;;;;;;;;;;21.79;73.04;100236.25;4786088;29;19926;-92
2023/10/13 14:05:26;;;;;;;;;;;;;;;;;;;;;
2023/10/13 14:08:21;;;;;;;;;;;;;;;;;;;;;
2023/10/13 14:13:59;;;;;;;;;;;;;;;21.73;74.77;100239.97;4828716;29;19917;-92
2023/10/13 14:17:48;;;;;;;;;;;;;;;;;;;;;
2023/10/13 14:20:20;;;;;;;;;;;;;;;21.68;74.68;100240.13;4869053;29;19916;-91
2023/10/13 14:26:09;;;;;;;;;;;;;;;21.75;73.68;100239.94;4884147;29;19926;-92
2023/10/13 14:29:00;;;;;;;;;;;;;;;21.77;74.52;100243.38;4875947;29;19928;-91
2023/10/13 14:31:49;;;;;;;;;;;;;;;21.81;74.27;100245.03;4887278;29;19915;-92
2023/10/13 14:43:25;;;;;;;;;;;;;;;;;;;;;
2023/10/13 14:46:01;;;;;;;;;;;;;;;21.74;73.79;100248.78;4892891;29;19922;-91
2023/10/13 14:49:02;;;;;;;;;;;;;;;21.74;74.30;100243.50;4880939;29;20126;-92
2023/10/13 14:51:46;;;;;;;;;;;;;;;21.76;74.52;100233.72;4878141;29;19923;-92
2023/10/13 14:54:17;;;;;;;;;;;;;;;21.80;73.29;100246.81;4894198;29;19916;-92
2023/10/13 14:57:00;;;;;;;;;;;;;;;21.65;74.75;100250.84;4877399;29;19923;-91
2023/10/13 15:02:49;;;;;;;;;;;;;;;21.55;75.17;100233.47;4872022;29;19975;-92
2023/10/13 15:09:09;;;;;;;;;;;;;;;21.37;75.41;100226.94;4875409;29;20379;-91
2023/10/13 15:12:05;;;;;;;;;;;;;;;21.32;76.70;100235.03;4871929;29;19971;-91
2023/10/13 15:15:02;;;;;;;;;;;;;;;21.28;76.10;100233.41;4850290;29;19928;-91
2023/10/13 15:17:40;;;;;;;;;;;;;;;;;;;;;
2023/10/13 15:20:19;;;;;;;;;;;;;;;21.23;77.23;100237.94;4892247;29;19916;-91
2023/10/13 15:23:00;;;;;;;;;;;;;;;21.28;77.18;100233.41;4874026;29;20449;-92
2023/10/13 15:26:06;;;;;;;;;;;;;;;21.13;79.19;100231.19;4877152;29;19990;-91
2023/10/13 15:28:53;;;;;;;;;;;;;;;21.00;79.46;100201.56;4892972;29;20609;-92
2023/10/13 15:35:00;;;;;;;;;;;;;;;20.82;80.61;100203.84;4893116;29;19927;-91
2023/10/13 15:37:41;;;;;;;;;;;;;;;20.71;81.00;100197.13;4877125;29;20007;-92
2023/10/13 15:40:29;;;;;;;;;;;;;;;20.65;81.97;100183.13;4876859;29;19916;-92
2023/10/13 15:43:00;;;;;;;;;;;;;;;20.59;82.06;100193.88;4892583;29;19923;-92
2023/10/13 15:45:42;;;;;;;;;;;;;;;20.53;82.38;100191.41;4869579;29;19926;-91
2023/10/13 15:48:08;;;;;;;;;;;;;;;20.44;83.36;100176.66;4896756;29;20417;-92
2023/10/13 15:50:54;;;;;;;;;;;;;;;20.36;83.63;100178.66;4896434;29;19922;-92
2023/10/13 15:53:38;;;;;;;;;;;;;;;;;;;;;
2023/10/13 15:56:14;;;;;;;;;;;;;;;20.20;84.08;100154.38;4912215;29;19915;-92
2023/10/13 15:58:46;;;;;;;;;;;;;;;20.15;84.98;100151.00;4892086;29;19922;-93
2023/10/13 16:04:19;;;;;;;;;;;;;;;19.97;86.10;100145.31;4904447;29;19979;-93
2023/10/13 16:06:46;;;;;;;;;;;;;;;19.93;86.77;100134.88;4881693;29;19916;-91
2023/10/13 16:09:14;;;;;;;;;;;;;;;19.87;86.68;100140.28;4896171;29;19920;-91
2023/10/13 16:12:10;;;;;;;;;;;;;;;19.82;86.48;100129.00;4899313;29;19962;-91
2023/10/13 16:14:45;;;;;;;;;;;;;;;19.79;87.45;100116.72;4886265;29;19922;-92
2023/10/13 16:17:21;;;;;;;;;;;;;;;19.75;86.82;100117.66;4881980;29;19915;-91
2023/10/13 16:19:47;;;;;;;;;;;;;;;19.74;86.63;100108.88;4880034;29;20006;-91
2023/10/13 16:22:18;;;;;;;;;;;;;;;19.75;87.09;100112.38;4865158;29;20411;-91
2023/10/13 16:24:57;;;;;;;;;;;;;;;19.74;85.96;100102.69;4875144;29;19931;-91
2023/10/13 16:27:27;;;;;;;;;;;;;;;19.79;86.29;100103.50;4894047;29;19945;-91
2023/10/13 16:36:37;;;;;;;;;;;;;;;19.81;85.76;100099.03;4881900;29;19981;-91
2023/10/13 16:39:06;;;;;;;;;;;;;;;19.80;85.24;100076.16;4897829;29;20294;-91
2023/10/13 16:41:57;;;;;;;;;;;;;;;19.80;85.74;100066.44;4879497;29;19926;-92
2023/10/13 16:44:50;;;;;;;;;;;;;;;19.80;85.74;100084.09;4891868;29;19915;-90
2023/10/13 16:47:21;;;;;;;;;;;;;;;19.78;85.14;100067.34;4875491;29;19932;-91
2023/10/13 16:50:14;;;;;;;;;;;;;;;19.79;84.87;100074.41;4886694;29;19940;-92
2023/10/13 16:53:00;;;;;;;;;;;;;;;;;;;;;
2023/10/13 16:55:54;;;;;;;;;;;;;;;19.80;84.71;100089.38;4898253;29;20425;-91
2023/10/13 16:58:54;;;;;;;;;;;;;;;;;;;;;
2023/10/13 17:04:41;;;;;;;;;;;;;;;19.81;88.03;100128.09;4895731;29;19994;-90
2023/10/13 17:07:07;;;;;;;;;;;;;;;19.57;91.66;100132.22;4892549;29;20413;-89
2023/10/13 17:09:33;;;;;;;;;;;;;;;19.28;93.64;100129.38;4887229;29;20006;-90
2023/10/13 17:11:58;;;;;;;;;;;;;;;19.04;95.56;100120.25;4893266;29;20013;-90
2023/10/13 17:14:23;;;;;;;;;;;;;;;18.88;97.85;100117.09;4888052;29;20021;-90
2023/10/13 17:16:49;;;;;;;;;;;;;;;18.68;99.38;100120.13;4875079;29;20282;-89
2023/10/13 17:19:14;;;;;;;;;;;;;;;18.52;100.00;100116.94;4878086;29;20319;-89
2023/10/13 17:21:39;;;;;;;;;;;;;;;18.40;100.00;100099.63;4874868;29;19919;-90
2023/10/13 17:24:05;;;;;;;;;;;;;;;18.27;100.00;100094.66;4882185;29;19930;-90
2023/10/13 17:26:30;;;;;;;;;;;;;;;18.17;100.00;100086.91;4892759;29;19922;-89
2023/10/13 17:28:58;;;;;;;;;;;;;;;18.16;100.00;100090.47;4887495;29;19942;-90